ETIC

Grafenwohr Army Air Field Airport

Germany
METAR ETIC 141656Z AUTO 08007KT 9999 OVC020 M02/M06 A3016 RMK AO2 SLP245 T10191056 $
Observed Flight Rules
Dec-14 @ 16:56 UTC (6 minutes ago) Marginal Visual Flight Rules
Wind Visibility Clouds
80° at 7 knots 10,000+ meters
  • Overcast at 2,000' AGL
Temperatures Readings
Current -2°C / 28°F
Dewpoint -6°C / 21°F
Humidity 74%
Altimeter 30.16" Hg
Pressure 1024.5 hPa
Elevation 415
METAR ETIC 141656Z AUTO 08007KT 9999 OVC020 M02/M06 A3016 RMK AO2 SLP245 T10191056 $
Observed Flight Rules
Dec-14 @ 16:56 UTC
(6 minutes ago)
MVFR
Wind Visibility
80° at 7 knots 10,000+ meters
Clouds
  • Overcast at 2,000' AGL
Temperature Dewpoint
-2°C / 28°F -6°C / 21°F
Humidity Altimeter Pressure
74% 30.16" Hg 1024.5 hPa